Terminal Aerodrome Forecast
Issued by NWS

Home | Current Version | Previous Version | Text Only | Print | Product List | Glossary On
Versions: 1 2 3 4 5 6 7 8 9 10 11 12 13 14 15 16 17 18 19 20 21 22 23 24 25 26 27 28 29 30 31 32 33 34
763
FTUS45 KREV 211558 AAA
TAFTRK
TAF AMD
KTRK 211558Z 2116/2212 18008KT 3SM -SHSN SCT015 OVC025
      WS020/24035KT
      TEMPO 2116/2118 1/2SM SN OVC007
     FM212100 20010G18KT 5SM -SHSN BKN025 OVC030
     FM220500 19014G24KT 1/2SM SN BKN008 OVC015 WS020/24045KT=

USA.gov is the U.S. government's official web portal to all federal, state and local government web resources and services.